Time;durP1;ratioP1;P1;durP2;ratioP2;P2;SDS_P1;SDS_P2;PMS_P1;PMS_P2;Temp;Humidity;BMP_temperature;BMP_pressure;BME280_temperature;BME280_humidity;BME280_pressure;Samples;Min_cycle;Max_cycle;Signal;HPM_P1;HPM_P2
2021/04/04 00:02:15;;;;;;;3.10;2.70;;;;;;;5.68;100.00;95438.94;4971517;28;20203;-61
2021/04/04 00:04:42;;;;;;;3.63;3.20;;;;;;;5.59;100.00;95440.50;4971320;28;20255;-61
2021/04/04 00:07:09;;;;;;;3.40;3.10;;;;;;;5.63;100.00;95441.53;4971534;28;20235;-61
2021/04/04 00:09:37;;;;;;;3.30;3.00;;;;;;;5.48;100.00;95444.91;4970841;28;20246;-62
2021/04/04 00:12:05;;;;;;;2.83;2.53;;;;;;;5.41;100.00;95448.81;4971488;28;20588;-62
2021/04/04 00:14:33;;;;;;;3.23;2.90;;;;;;;5.45;100.00;95454.97;4971338;28;20754;-61
2021/04/04 00:17:00;;;;;;;3.47;3.17;;;;;;;5.39;100.00;95472.25;4971302;28;20199;-61
2021/04/04 00:19:27;;;;;;;3.07;2.77;;;;;;;5.19;100.00;95473.06;4971230;28;20222;-62
2021/04/04 00:21:54;;;;;;;3.33;2.90;;;;;;;5.11;100.00;95473.59;4971319;28;20244;-62
2021/04/04 00:24:21;;;;;;;3.13;2.70;;;;;;;5.17;100.00;95474.34;4971184;28;20714;-62
2021/04/04 00:26:47;;;;;;;2.90;2.60;;;;;;;5.13;100.00;95471.50;4971285;28;20195;-62
2021/04/04 00:29:14;;;;;;;3.53;2.87;;;;;;;5.15;100.00;95477.19;4971206;28;20694;-61
2021/04/04 00:31:42;;;;;;;3.40;3.03;;;;;;;5.24;100.00;95474.06;4971413;28;20211;-62
2021/04/04 00:34:09;;;;;;;3.47;2.80;;;;;;;5.08;100.00;95475.91;4971357;28;20283;-61
2021/04/04 00:36:36;;;;;;;2.77;2.30;;;;;;;5.23;100.00;95477.72;4971501;28;20712;-60
2021/04/04 00:39:07;;;;;;;2.83;2.53;;;;;;;5.11;100.00;95475.38;4971253;28;20671;-62
2021/04/04 00:41:34;;;;;;;3.77;2.70;;;;;;;4.90;100.00;95481.56;4971398;28;20199;-61
2021/04/04 00:44:01;;;;;;;4.43;3.23;;;;;;;4.93;100.00;95488.78;4971042;28;20647;-61
2021/04/04 00:46:28;;;;;;;4.27;3.50;;;;;;;4.92;100.00;95490.59;4970971;28;20243;-61
2021/04/04 00:48:56;;;;;;;4.83;3.70;;;;;;;4.86;100.00;95493.41;4970844;28;20219;-62
2021/04/04 00:51:23;;;;;;;4.27;3.23;;;;;;;4.90;100.00;95491.88;4971014;28;20196;-63
2021/04/04 00:53:51;;;;;;;6.67;3.50;;;;;;;4.85;100.00;95497.78;4971079;28;20195;-61
2021/04/04 00:56:18;;;;;;;6.80;3.83;;;;;;;4.78;100.00;95495.44;4970851;28;20286;-63
2021/04/04 00:58:46;;;;;;;8.83;4.97;;;;;;;4.70;100.00;95498.53;4970798;28;20231;-63
2021/04/04 01:01:13;;;;;;;7.77;4.50;;;;;;;4.75;100.00;95500.34;4970980;28;20279;-63
2021/04/04 01:03:40;;;;;;;6.30;4.87;;;;;;;4.59;100.00;95501.34;4970796;28;20309;-62
2021/04/04 01:06:08;;;;;;;6.30;4.73;;;;;;;4.54;100.00;95501.34;4970957;28;20233;-63
2021/04/04 01:08:37;;;;;;;6.90;5.40;;;;;;;4.48;100.00;95508.28;4970752;28;20199;-63
2021/04/04 01:11:05;;;;;;;8.57;5.17;;;;;;;4.52;100.00;95504.19;4970898;28;20270;-63
2021/04/04 01:13:40;;;;;;;8.83;5.03;;;;;;;4.55;100.00;95508.03;4971435;28;20266;-62
2021/04/04 01:16:12;;;;;;;8.73;5.07;;;;;;;4.46;100.00;95509.56;4971197;28;20212;-62
2021/04/04 01:18:42;;;;;;;6.80;4.60;;;;;;;4.55;100.00;95508.03;4971194;28;20639;-65
2021/04/04 01:21:14;;;;;;;7.47;4.63;;;;;;;4.58;100.00;95510.88;4972552;28;20725;-62
2021/04/04 01:24:00;;;;;;;6.00;4.70;;;;;;;4.58;100.00;95504.97;4974665;28;20780;-63
2021/04/04 01:27:02;;;;;;;5.90;4.40;;;;;;;4.61;100.00;95502.66;4974597;28;20210;-63
2021/04/04 01:29:32;;;;;;;5.70;4.47;;;;;;;4.66;100.00;95509.59;4933924;29;20279;-64
2021/04/04 01:31:59;;;;;;;6.80;4.90;;;;;;;4.58;100.00;95502.41;4967497;28;20258;-63
2021/04/04 01:34:29;;;;;;;5.67;4.20;;;;;;;4.69;100.00;95507.28;4974533;28;20239;-61
2021/04/04 01:37:02;;;;;;;4.30;3.70;;;;;;;4.60;100.00;95508.03;4974309;28;20746;-62
2021/04/04 01:39:34;;;;;;;4.53;3.70;;;;;;;4.62;100.00;95504.22;4974331;28;20206;-63
2021/04/04 01:42:03;;;;;;;3.77;3.37;;;;;;;4.66;100.00;95499.31;4974316;28;20238;-63
2021/04/04 01:44:32;;;;;;;3.83;2.93;;;;;;;4.64;100.00;95501.34;4974110;28;20765;-62
2021/04/04 01:47:00;;;;;;;4.10;3.17;;;;;;;4.58;100.00;95499.81;4974079;28;20695;-62
2021/04/04 01:49:28;;;;;;;3.30;2.63;;;;;;;4.56;100.00;95499.28;4974127;28;20243;-64
2021/04/04 01:51:55;;;;;;;8.33;6.00;;;;;;;4.55;100.00;95498.53;4974162;28;20251;-65
2021/04/04 01:54:22;;;;;;;4.10;3.20;;;;;;;4.60;100.00;95500.31;4974138;28;20199;-63
2021/04/04 01:56:50;;;;;;;3.10;2.80;;;;;;;4.67;100.00;95493.91;4973919;28;20283;-63
2021/04/04 01:59:20;;;;;;;3.07;2.77;;;;;;;4.57;100.00;95495.69;4973889;28;20270;-63
2021/04/04 02:01:48;;;;;;;3.57;2.97;;;;;;;4.52;100.00;95495.69;4973786;28;20204;-61
2021/04/04 02:04:17;;;;;;;3.43;2.70;;;;;;;4.62;100.00;95495.72;4973416;28;20224;-62
2021/04/04 02:06:45;;;;;;;3.33;2.70;;;;;;;4.61;100.00;95497.50;4973841;28;20192;-64
2021/04/04 02:09:16;;;;;;;4.63;3.03;;;;;;;4.41;100.00;95502.59;4973799;28;20580;-65
2021/04/04 02:11:43;;;;;;;3.00;2.70;;;;;;;4.41;100.00;95496.69;4974113;28;20637;-63
2021/04/04 02:14:12;;;;;;;3.23;2.60;;;;;;;4.32;100.00;95493.84;4973874;28;20662;-63
2021/04/04 02:16:44;;;;;;;2.83;2.53;;;;;;;4.39;100.00;95488.44;4973699;28;20227;-63
2021/04/04 02:19:14;;;;;;;3.17;2.73;;;;;;;4.43;100.00;95485.13;4973719;28;20204;-63
2021/04/04 02:21:42;;;;;;;3.40;3.10;;;;;;;4.34;100.00;95482.25;4973437;28;20239;-63
2021/04/04 02:24:10;;;;;;;3.37;2.93;;;;;;;4.32;100.00;95478.41;4973423;28;20267;-63
2021/04/04 02:26:37;;;;;;;4.47;3.50;;;;;;;4.29;100.00;95476.31;4973462;28;20196;-63
2021/04/04 02:29:06;;;;;;;4.20;3.50;;;;;;;4.26;100.00;95482.75;4973754;28;20246;-64
2021/04/04 02:31:37;;;;;;;5.47;3.73;;;;;;;4.39;100.00;95478.16;4972912;28;20679;-63
2021/04/04 02:34:09;;;;;;;5.17;4.30;;;;;;;4.26;100.00;95485.34;4973418;28;20273;-63
2021/04/04 02:36:40;;;;;;;4.83;4.07;;;;;;;4.37;100.00;95491.28;4973440;28;20299;-62
2021/04/04 02:39:14;;;;;;;4.77;3.90;;;;;;;4.29;100.00;95479.69;4973484;28;20554;-63
2021/04/04 02:41:42;;;;;;;5.70;4.67;;;;;;;4.25;100.00;95486.34;4973199;28;20750;-63
2021/04/04 02:44:10;;;;;;;4.47;3.60;;;;;;;4.20;100.00;95486.34;4973116;28;20274;-63
2021/04/04 02:46:38;;;;;;;5.13;4.37;;;;;;;4.19;100.00;95486.59;4973021;28;20288;-63
2021/04/04 02:49:08;;;;;;;6.07;4.57;;;;;;;4.22;100.00;95479.16;4972962;28;20597;-63
2021/04/04 02:51:39;;;;;;;6.33;5.23;;;;;;;4.13;100.00;95478.09;4973110;28;20202;-63
2021/04/04 02:54:08;;;;;;;15.23;9.00;;;;;;;4.10;100.00;95470.88;4973252;28;20204;-63
2021/04/04 02:56:38;;;;;;;8.57;6.00;;;;;;;4.11;100.00;95472.44;4972926;28;20631;-63
2021/04/04 02:59:11;;;;;;;5.23;4.30;;;;;;;4.13;100.00;95477.34;4972885;28;20214;-62
2021/04/04 03:01:41;;;;;;;5.30;3.43;;;;;;;4.09;100.00;95478.84;4972846;28;20219;-63
2021/04/04 03:04:10;;;;;;;4.07;3.67;;;;;;;4.06;100.00;95474.22;4973154;28;20207;-63
2021/04/04 03:06:41;;;;;;;4.27;3.70;;;;;;;4.09;100.00;95478.84;4972698;28;20228;-62
2021/04/04 03:09:09;;;;;;;4.33;3.63;;;;;;;4.06;100.00;95479.34;4973016;28;20211;-62
2021/04/04 03:11:38;;;;;;;4.53;3.93;;;;;;;4.01;100.00;95472.41;4972569;28;20294;-62
2021/04/04 03:14:06;;;;;;;5.30;3.97;;;;;;;4.19;100.00;95471.94;4972478;28;20694;-63
2021/04/04 03:16:34;;;;;;;5.30;4.57;;;;;;;4.14;100.00;95468.56;4972717;28;20203;-62
2021/04/04 03:19:03;;;;;;;6.10;4.27;;;;;;;4.21;100.00;95482.75;4972757;28;20200;-63
2021/04/04 03:21:33;;;;;;;7.40;5.03;;;;;;;4.23;100.00;95474.78;4972261;28;20318;-63
2021/04/04 03:24:02;;;;;;;6.63;4.80;;;;;;;4.32;100.00;95466.31;4972685;28;20207;-64
2021/04/04 03:26:31;;;;;;;5.50;4.53;;;;;;;4.38;100.00;95461.97;4972357;28;20617;-62
2021/04/04 03:28:59;;;;;;;6.60;5.23;;;;;;;4.36;100.00;95470.94;4972289;28;20200;-62
2021/04/04 03:31:27;;;;;;;7.63;5.20;;;;;;;4.38;100.00;95461.97;4972405;28;20694;-62
2021/04/04 03:33:54;;;;;;;7.63;5.90;;;;;;;4.45;100.00;95466.84;4972366;28;20570;-62
2021/04/04 03:36:22;;;;;;;6.53;5.50;;;;;;;4.41;100.00;95466.59;4972186;28;20208;-62
2021/04/04 03:38:51;;;;;;;8.57;6.10;;;;;;;4.50;100.00;95464.28;4972077;28;20231;-62
2021/04/04 03:41:21;;;;;;;8.10;6.47;;;;;;;4.47;100.00;95467.38;4972376;28;20200;-62
2021/04/04 03:43:50;;;;;;;8.20;6.50;;;;;;;4.43;100.00;95468.91;4971301;28;20210;-62
2021/04/04 03:46:22;;;;;;;9.83;7.57;;;;;;;4.52;100.00;95464.81;4971899;28;20706;-62
2021/04/04 03:48:51;;;;;;;9.27;6.90;;;;;;;4.62;100.00;95464.81;4971951;28;20723;-62
2021/04/04 03:51:18;;;;;;;9.13;7.60;;;;;;;4.70;100.00;95464.31;4971979;28;20204;-62
2021/04/04 03:53:47;;;;;;;10.53;7.77;;;;;;;4.79;100.00;95460.19;4971724;28;20295;-62
2021/04/04 03:56:19;;;;;;;11.07;8.03;;;;;;;4.66;100.00;95466.63;4971734;28;20749;-61
2021/04/04 03:58:49;;;;;;;12.07;9.60;;;;;;;4.54;100.00;95462.75;4971945;28;20215;-62
2021/04/04 04:01:20;;;;;;;15.70;11.40;;;;;;;4.59;100.00;95467.91;4971776;28;20200;-61
2021/04/04 04:03:49;;;;;;;16.87;11.67;;;;;;;4.63;100.00;95464.56;4971624;28;20291;-62
2021/04/04 04:06:17;;;;;;;15.33;10.80;;;;;;;4.67;100.00;95462.25;4971331;28;20369;-61
2021/04/04 04:08:44;;;;;;;15.87;11.10;;;;;;;4.57;100.00;95464.81;4971323;28;20314;-62
2021/04/04 04:11:12;;;;;;;16.13;11.57;;;;;;;4.61;100.00;95471.78;4971424;28;20215;-62
2021/04/04 04:13:41;;;;;;;16.57;12.47;;;;;;;4.70;100.00;95470.22;4971465;28;20243;-61
2021/04/04 04:16:11;;;;;;;21.00;13.10;;;;;;;4.70;100.00;95469.47;4971669;28;20332;-62
2021/04/04 04:18:42;;;;;;;19.40;13.43;;;;;;;4.64;100.00;95475.63;4971250;28;20286;-64
2021/04/04 04:21:09;;;;;;;19.27;13.80;;;;;;;4.59;100.00;95478.19;4970890;28;20244;-63
2021/04/04 04:23:38;;;;;;;20.73;13.90;;;;;;;4.52;100.00;95469.97;4971223;28;20204;-61
2021/04/04 04:26:05;;;;;;;21.90;15.30;;;;;;;4.49;100.00;95467.88;4971125;28;20275;-62
2021/04/04 04:28:35;;;;;;;21.63;14.47;;;;;;;4.60;100.00;95462.50;4971195;28;20207;-61
2021/04/04 04:31:04;;;;;;;19.77;14.30;;;;;;;4.66;100.00;95463.28;4970946;28;20232;-62
2021/04/04 04:33:32;;;;;;;21.73;14.70;;;;;;;4.65;100.00;95461.72;4971109;28;20237;-62
2021/04/04 04:35:59;;;;;;;20.93;14.47;;;;;;;4.63;100.00;95464.56;4971413;28;20191;-62
2021/04/04 04:38:27;;;;;;;20.87;14.00;;;;;;;4.67;100.00;95469.97;4971211;28;20192;-62
2021/04/04 04:40:56;;;;;;;19.53;13.50;;;;;;;4.73;100.00;95464.56;4971163;28;20207;-61
2021/04/04 04:43:25;;;;;;;19.07;14.10;;;;;;;4.88;100.00;95468.94;4969649;28;20251;-63
2021/04/04 04:45:56;;;;;;;19.27;13.80;;;;;;;4.87;100.00;95475.13;4970849;28;20318;-63
2021/04/04 04:48:23;;;;;;;17.57;13.03;;;;;;;4.89;100.00;95470.50;4971157;28;20239;-62
2021/04/04 04:50:51;;;;;;;17.13;11.77;;;;;;;4.99;100.00;95467.91;4971031;28;20269;-62
2021/04/04 04:53:18;;;;;;;14.80;10.23;;;;;;;5.09;100.00;95473.06;4971168;28;20212;-62
2021/04/04 04:55:48;;;;;;;16.80;11.50;;;;;;;5.09;100.00;95472.28;4973868;28;20192;-63
2021/04/04 04:58:15;;;;;;;14.57;11.43;;;;;;;5.12;100.00;95482.88;4975068;28;20215;-62
2021/04/04 05:00:43;;;;;;;17.60;12.20;;;;;;;5.19;100.00;95475.63;4973551;28;20242;-62
2021/04/04 05:03:11;;;;;;;11.97;9.13;;;;;;;5.29;100.00;95485.16;4974628;28;20263;-62
2021/04/04 05:05:38;;;;;;;12.50;9.50;;;;;;;5.33;100.00;95488.00;4974789;28;20600;-62
2021/04/04 05:08:08;;;;;;;10.70;8.80;;;;;;;5.24;100.00;95481.81;4974900;28;20199;-62
2021/04/04 05:10:38;;;;;;;10.30;8.43;;;;;;;5.23;100.00;95488.75;4974483;28;20203;-62
2021/04/04 05:13:08;;;;;;;12.50;9.00;;;;;;;5.19;100.00;95498.81;4974979;28;20227;-63
2021/04/04 05:15:35;;;;;;;12.10;8.90;;;;;;;5.33;100.00;95493.91;4974467;28;20196;-64
2021/04/04 05:18:05;;;;;;;10.23;7.67;;;;;;;5.33;100.00;95488.75;4974449;28;20231;-62
2021/04/04 05:20:33;;;;;;;8.73;6.20;;;;;;;5.39;100.00;95497.25;4974446;28;20590;-63
2021/04/04 05:23:00;;;;;;;7.57;5.97;;;;;;;5.31;100.00;95498.56;4974096;28;20266;-62
2021/04/04 05:25:28;;;;;;;10.00;7.47;;;;;;;5.27;100.00;95492.38;4974215;28;20271;-61
2021/04/04 05:27:57;;;;;;;9.20;7.20;;;;;;;5.17;100.00;95495.75;4974415;28;20589;-62
2021/04/04 05:30:27;;;;;;;9.10;6.60;;;;;;;5.20;100.00;95505.50;4974287;28;20200;-63
2021/04/04 05:32:54;;;;;;;8.40;6.87;;;;;;;5.25;100.00;95516.84;4974198;28;20212;-62
2021/04/04 05:35:23;;;;;;;9.37;7.67;;;;;;;5.23;100.00;95513.78;4973851;28;20196;-62
2021/04/04 05:37:51;;;;;;;9.10;7.73;;;;;;;5.04;100.00;95514.28;4974175;28;20671;-62
2021/04/04 05:40:20;;;;;;;9.90;7.67;;;;;;;5.12;100.00;95513.78;4974366;28;20359;-61
2021/04/04 05:42:53;;;;;;;9.73;7.80;;;;;;;5.05;100.00;95517.63;4974048;28;20203;-62
2021/04/04 05:45:35;;;;;;;11.13;8.70;;;;;;;5.12;100.00;95513.78;4973926;28;20322;-62
2021/04/04 05:48:21;;;;;;;13.37;9.53;;;;;;;4.98;100.00;95515.28;4973956;28;20624;-62
2021/04/04 05:51:13;;;;;;;12.97;9.77;;;;;;;4.89;100.00;95509.09;4973981;28;20705;-62
2021/04/04 05:53:52;;;;;;;15.17;11.40;;;;;;;4.91;100.00;95506.28;4973888;28;20203;-62
2021/04/04 05:56:24;;;;;;;16.53;12.27;;;;;;;5.10;100.00;95502.94;4973707;28;20200;-63
2021/04/04 05:58:59;;;;;;;16.73;12.27;;;;;;;4.98;100.00;95510.13;4973688;28;20228;-62
2021/04/04 06:01:51;;;;;;;17.87;13.93;;;;;;;5.13;100.00;95499.84;4974022;28;20694;-62
2021/04/04 06:04:39;;;;;;;18.87;13.67;;;;;;;5.05;100.00;95497.78;4973568;28;20655;-62
2021/04/04 06:07:26;;;;;;;16.33;11.90;;;;;;;5.01;100.00;95491.63;4972828;28;20723;-63
2021/04/04 06:10:07;;;;;;;16.33;12.27;;;;;;;5.03;100.00;95491.38;4973548;28;20513;-63
2021/04/04 06:12:53;;;;;;;17.60;12.83;;;;;;;5.16;100.00;95493.41;4973630;28;20204;-63
2021/04/04 06:15:33;;;;;;;17.53;13.20;;;;;;;5.17;100.00;95506.03;4974005;28;20734;-63
2021/04/04 06:18:17;;;;;;;19.43;13.53;;;;;;;5.11;100.00;95499.34;4973560;28;20762;-63
2021/04/04 06:20:56;;;;;;;20.67;14.03;;;;;;;5.14;100.00;95505.75;4973209;28;20835;-62
2021/04/04 06:23:31;;;;;;;16.37;12.90;;;;;;;5.27;100.00;95499.34;4973322;28;20196;-63
2021/04/04 06:26:13;;;;;;;18.07;12.57;;;;;;;5.30;100.00;95506.53;4973137;28;20227;-61
2021/04/04 06:28:51;;;;;;;20.77;14.20;;;;;;;5.14;100.00;95508.34;4973124;28;20196;-63
2021/04/04 06:31:33;;;;;;;25.53;17.50;;;;;;;5.14;100.00;95511.69;4973277;28;20207;-63
2021/04/04 06:34:09;;;;;;;23.70;16.37;;;;;;;5.31;100.00;95515.81;4973209;28;20239;-61
2021/04/04 06:36:42;;;;;;;19.97;14.67;;;;;;;5.36;100.00;95513.22;4973120;28;20207;-62
2021/04/04 06:39:29;;;;;;;20.00;14.50;;;;;;;5.26;100.00;95519.16;4973015;28;20580;-63
2021/04/04 06:42:09;;;;;;;19.73;13.60;;;;;;;5.20;100.00;95515.81;4960839;28;20200;-62
2021/04/04 06:44:54;;;;;;;19.30;13.03;;;;;;;5.28;100.00;95526.66;4973113;28;20219;-63
2021/04/04 06:47:28;;;;;;;17.13;12.90;;;;;;;5.25;100.00;95524.56;4972783;28;20626;-63
2021/04/04 06:50:27;;;;;;;20.90;15.13;;;;;;;5.36;100.00;95518.38;4973137;28;20227;-62
2021/04/04 06:53:07;;;;;;;19.20;12.97;;;;;;;5.37;100.00;95504.47;4972857;28;20314;-62
2021/04/04 06:55:44;;;;;;;17.90;12.63;;;;;;;5.57;100.00;95512.19;4972999;28;20207;-62
2021/04/04 06:58:20;;;;;;;16.50;12.07;;;;;;;5.76;99.58;95513.16;4972958;28;20214;-62
2021/04/04 07:00:59;;;;;;;16.00;11.47;;;;;;;5.81;98.90;95523.47;4972743;28;20274;-63
2021/04/04 07:03:31;;;;;;;16.63;12.23;;;;;;;5.97;98.19;95514.69;4972888;28;20655;-64
2021/04/04 07:06:05;;;;;;;17.53;12.00;;;;;;;5.98;97.42;95518.78;4972301;28;20270;-63
2021/04/04 07:09:17;;;;;;;17.70;13.03;;;;;;;6.27;99.34;95524.13;4972382;28;20257;-63
2021/04/04 07:11:54;;;;;;;18.60;13.17;;;;;;;6.34;97.32;95524.59;4972751;28;20211;-62
2021/04/04 07:14:42;;;;;;;17.87;12.37;;;;;;;6.46;98.03;95527.63;4972260;28;20235;-62
2021/04/04 07:17:45;;;;;;;16.63;12.17;;;;;;;6.40;94.98;95533.09;4971023;28;20199;-63
2021/04/04 07:20:34;;;;;;;17.20;12.70;;;;;;;6.50;96.85;95527.88;4965730;28;20223;-63
2021/04/04 07:23:45;;;;;;;15.37;12.00;;;;;;;6.29;96.14;95518.69;4972144;28;20278;-61
2021/04/04 07:26:23;;;;;;;16.27;12.40;;;;;;;6.41;95.94;95521.72;4971998;28;20245;-63
2021/04/04 07:29:00;;;;;;;17.17;12.67;;;;;;;6.54;96.81;95525.53;4972195;28;20290;-62
2021/04/04 07:31:32;;;;;;;18.13;12.20;;;;;;;6.85;95.28;95517.34;4972190;28;20244;-62
2021/04/04 07:34:09;;;;;;;12.87;10.83;;;;;;;6.97;93.09;95513.66;4971784;28;20281;-63
2021/04/04 07:36:57;;;;;;;14.70;10.40;;;;;;;7.13;90.15;95518.41;4971939;28;20203;-64
2021/04/04 07:39:32;;;;;;;14.43;11.23;;;;;;;7.51;91.75;95527.16;4971812;28;20731;-63
2021/04/04 07:42:26;;;;;;;12.83;10.13;;;;;;;7.57;88.64;95515.72;4971931;28;20642;-63
2021/04/04 07:45:03;;;;;;;13.50;10.53;;;;;;;7.69;89.77;95513.53;4971509;28;20232;-63
2021/04/04 07:47:44;;;;;;;13.77;10.87;;;;;;;7.81;89.03;95518.34;4971650;28;20702;-64
2021/04/04 07:50:15;;;;;;;12.73;10.57;;;;;;;7.84;88.77;95511.84;4971796;28;20199;-64
2021/04/04 07:52:52;;;;;;;14.80;10.37;;;;;;;7.74;88.78;95508.31;4971769;28;20196;-65
2021/04/04 07:55:40;;;;;;;12.30;10.33;;;;;;;7.76;88.15;95511.41;4971602;28;20235;-63
2021/04/04 07:58:19;;;;;;;12.73;10.23;;;;;;;7.88;89.84;95510.25;4971554;28;20230;-64
2021/04/04 08:00:52;;;;;;;13.57;10.60;;;;;;;7.77;90.58;95500.00;4971498;28;20235;-63
2021/04/04 08:03:22;;;;;;;13.30;9.97;;;;;;;7.94;88.19;95509.91;4971490;28;20200;-63
2021/04/04 08:05:55;;;;;;;17.73;10.53;;;;;;;8.12;87.08;95511.78;4971426;28;20601;-64
2021/04/04 08:08:31;;;;;;;12.10;9.60;;;;;;;8.17;87.67;95514.31;4971911;28;20674;-64
2021/04/04 08:11:02;;;;;;;13.87;10.77;;;;;;;8.43;90.02;95506.25;4971332;28;20291;-63
2021/04/04 08:13:36;;;;;;;11.20;9.80;;;;;;;8.50;87.33;95506.69;4971480;28;20231;-63
2021/04/04 08:16:09;;;;;;;11.90;10.57;;;;;;;8.21;86.72;95514.53;4971281;28;20222;-63
2021/04/04 08:18:36;;;;;;;12.90;10.17;;;;;;;8.38;86.27;95512.28;4971409;28;20243;-64
2021/04/04 08:21:08;;;;;;;16.67;9.90;;;;;;;8.45;85.08;95499.00;4971057;28;20246;-62
2021/04/04 08:23:47;;;;;;;11.77;9.20;;;;;;;8.41;86.38;95498.78;4971211;28;20258;-62
2021/04/04 08:26:21;;;;;;;15.07;10.73;;;;;;;8.56;88.60;95500.41;4971137;28;20726;-63
2021/04/04 08:28:53;;;;;;;16.83;10.73;;;;;;;8.60;88.93;95506.56;4971013;28;20215;-63
2021/04/04 08:31:24;;;;;;;14.97;10.67;;;;;;;8.20;87.66;95498.22;4971073;28;20283;-64
2021/04/04 08:33:55;;;;;;;12.03;9.10;;;;;;;7.88;85.54;95502.47;4971117;28;20710;-62
2021/04/04 08:36:26;;;;;;;11.73;9.03;;;;;;;7.77;83.78;95499.25;4971156;28;20206;-62
2021/04/04 08:38:57;;;;;;;13.20;10.47;;;;;;;7.85;87.37;95500.44;4971111;28;20202;-62
2021/04/04 08:41:25;;;;;;;13.63;11.13;;;;;;;7.98;89.69;95503.13;4971452;28;20564;-63
2021/04/04 08:44:00;;;;;;;13.43;9.90;;;;;;;7.85;86.21;95511.56;4971070;28;20210;-62
2021/04/04 08:46:35;;;;;;;11.80;9.17;;;;;;;7.75;88.01;95506.50;4971097;28;20253;-63
2021/04/04 08:49:03;;;;;;;14.40;11.27;;;;;;;7.74;89.02;95495.38;4970965;28;20724;-63
2021/04/04 08:51:37;;;;;;;14.80;11.40;;;;;;;8.15;91.89;95500.09;4970929;28;20199;-63
2021/04/04 08:54:13;;;;;;;18.17;12.03;;;;;;;8.16;91.21;95499.06;4971117;28;20199;-62
2021/04/04 08:56:42;;;;;;;15.33;11.20;;;;;;;8.12;90.10;95498.06;4971172;28;20222;-63
2021/04/04 08:59:09;;;;;;;15.07;12.43;;;;;;;8.19;91.67;95503.69;4971029;28;20196;-65
2021/04/04 09:01:39;;;;;;;13.30;10.07;;;;;;;7.86;88.98;95510.53;4970895;28;20203;-63
2021/04/04 09:04:08;;;;;;;18.30;12.80;;;;;;;8.10;91.45;95495.00;4970805;28;20195;-62
2021/04/04 09:06:37;;;;;;;15.10;12.10;;;;;;;7.93;89.87;95495.44;4970861;28;20223;-63
2021/04/04 09:09:25;;;;;;;13.53;10.67;;;;;;;8.01;87.92;95499.25;4971115;28;20302;-63
2021/04/04 09:11:54;;;;;;;14.53;10.40;;;;;;;7.87;88.81;95493.19;4970775;28;20548;-62
2021/04/04 09:14:24;;;;;;;12.77;10.00;;;;;;;7.83;88.99;95494.78;4970551;28;20192;-64
2021/04/04 09:16:55;;;;;;;12.13;10.33;;;;;;;7.53;85.58;95499.22;4971331;28;20199;-64
2021/04/04 09:19:41;;;;;;;13.03;9.67;;;;;;;7.28;86.45;95491.69;4970635;28;20192;-64
2021/04/04 09:22:14;;;;;;;15.67;11.47;;;;;;;7.09;90.13;95496.75;4970710;28;20243;-62
2021/04/04 09:24:48;;;;;;;15.20;11.50;;;;;;;7.01;92.59;95494.75;4970575;28;20192;-63
2021/04/04 09:27:18;;;;;;;16.20;12.33;;;;;;;6.93;92.68;95490.94;4970993;28;20199;-63
2021/04/04 09:29:47;;;;;;;14.90;11.03;;;;;;;6.90;92.45;95488.13;4970604;28;20192;-62
2021/04/04 09:32:27;;;;;;;17.20;12.60;;;;;;;7.19;94.26;95493.31;4970584;28;20199;-60
2021/04/04 09:34:55;;;;;;;20.20;14.67;;;;;;;7.40;96.29;95486.94;4970544;28;20207;-62
2021/04/04 09:37:24;;;;;;;18.90;14.90;;;;;;;6.92;92.93;95493.81;4970479;28;20330;-63
2021/04/04 09:39:53;;;;;;;19.57;14.27;;;;;;;6.66;94.94;95503.53;4970742;28;20200;-63
2021/04/04 09:42:20;;;;;;;20.50;14.57;;;;;;;6.85;95.98;95504.44;4972608;28;20643;-62
2021/04/04 09:44:47;;;;;;;21.03;14.93;;;;;;;6.93;97.56;95495.31;4973949;28;20203;-61
2021/04/04 09:47:15;;;;;;;16.83;13.17;;;;;;;6.82;96.47;95501.63;4973930;28;20611;-62
2021/04/04 09:49:44;;;;;;;14.73;11.77;;;;;;;6.73;95.24;95505.78;4973999;28;20738;-62
2021/04/04 09:52:24;;;;;;;17.67;12.33;;;;;;;6.87;96.38;95501.59;4973810;28;20200;-64
2021/04/04 09:55:07;;;;;;;16.30;11.50;;;;;;;7.02;96.36;95505.88;4973920;28;20195;-64
2021/04/04 09:57:40;;;;;;;16.90;12.07;;;;;;;7.01;97.27;95499.16;4973753;28;20211;-62
2021/04/04 10:00:23;;;;;;;17.63;12.17;;;;;;;6.58;96.16;95509.22;4973718;28;20284;-62
2021/04/04 10:02:51;;;;;;;17.53;12.30;;;;;;;6.14;96.14;95503.25;4973617;28;20201;-63
2021/04/04 10:05:32;;;;;;;17.50;13.47;;;;;;;5.88;99.20;95508.50;4973575;28;20253;-62
2021/04/04 10:08:15;;;;;;;17.23;12.27;;;;;;;5.48;98.76;95511.91;4973846;28;20208;-63
2021/04/04 10:10:45;;;;;;;18.00;13.10;;;;;;;5.39;100.00;95507.56;4973487;28;20774;-63
2021/04/04 10:13:13;;;;;;;20.10;14.27;;;;;;;5.55;100.00;95509.09;4974058;28;20201;-63
2021/04/04 10:15:42;;;;;;;17.23;12.83;;;;;;;5.60;100.00;95519.38;4973698;28;20288;-62
2021/04/04 10:18:09;;;;;;;18.50;13.33;;;;;;;5.54;100.00;95513.47;4973537;28;20604;-63
2021/04/04 10:20:38;;;;;;;17.57;13.33;;;;;;;5.71;100.00;95512.41;4973873;28;20242;-62
2021/04/04 10:23:07;;;;;;;32.27;16.37;;;;;;;5.67;99.29;95509.59;4973375;28;20757;-64
2021/04/04 10:25:34;;;;;;;16.80;12.47;;;;;;;5.76;99.47;95512.41;4973476;28;20231;-63
2021/04/04 10:28:06;;;;;;;17.83;13.03;;;;;;;5.72;100.00;95512.16;4973516;28;20231;-65
2021/04/04 10:30:39;;;;;;;18.83;12.70;;;;;;;5.59;100.00;95508.28;4973453;28;20195;-63
2021/04/04 10:33:23;;;;;;;17.83;13.10;;;;;;;5.51;100.00;95508.84;4973537;28;20196;-63
2021/04/04 10:35:52;;;;;;;16.17;12.07;;;;;;;5.63;100.00;95508.53;4973374;28;20206;-64
2021/04/04 10:38:21;;;;;;;13.63;10.70;;;;;;;5.57;99.38;95507.81;4973699;28;20634;-62
2021/04/04 10:40:54;;;;;;;16.33;10.93;;;;;;;5.47;99.77;95512.19;4973299;28;20300;-61
2021/04/04 10:43:24;;;;;;;14.17;10.17;;;;;;;5.52;99.54;95517.34;4973183;28;20686;-64
2021/04/04 10:46:05;;;;;;;14.10;10.53;;;;;;;5.68;99.98;95515.50;4973259;28;20293;-65
2021/04/04 10:48:35;;;;;;;14.50;10.50;;;;;;;5.50;98.58;95515.03;4973364;28;20255;-64
2021/04/04 10:51:04;;;;;;;12.87;9.80;;;;;;;5.37;99.74;95514.78;4973063;28;20242;-63
2021/04/04 10:53:31;;;;;;;13.20;10.80;;;;;;;5.59;99.10;95521.19;4972668;28;20200;-62
2021/04/04 10:56:01;;;;;;;15.37;11.50;;;;;;;5.74;99.50;95515.22;4973154;28;20603;-63
2021/04/04 10:58:29;;;;;;;17.80;12.40;;;;;;;5.82;99.17;95512.13;4972861;28;20223;-62
2021/04/04 11:00:57;;;;;;;14.50;10.50;;;;;;;5.93;99.14;95510.28;4973451;28;20199;-65
2021/04/04 11:03:25;;;;;;;15.27;11.57;;;;;;;5.67;99.61;95514.75;4973004;28;20622;-64
2021/04/04 11:05:52;;;;;;;14.43;11.23;;;;;;;5.60;100.00;95509.84;4972652;28;20226;-65
2021/04/04 11:08:20;;;;;;;11.00;8.73;;;;;;;5.72;98.74;95519.88;4972652;28;20679;-65
2021/04/04 11:10:48;;;;;;;10.50;8.67;;;;;;;5.77;98.85;95517.28;4972407;28;20282;-64
2021/04/04 11:13:16;;;;;;;9.80;8.20;;;;;;;5.80;97.33;95521.91;4972874;28;20251;-63
2021/04/04 11:15:53;;;;;;;10.93;8.70;;;;;;;5.74;96.85;95520.38;4972555;28;20230;-64
2021/04/04 11:18:27;;;;;;;9.57;7.60;;;;;;;5.84;98.70;95515.19;4972534;28;20207;-63
2021/04/04 11:20:57;;;;;;;9.53;7.87;;;;;;;5.83;99.40;95512.91;4972091;28;20206;-64
2021/04/04 11:23:24;;;;;;;9.60;7.50;;;;;;;5.92;98.44;95501.81;4972352;28;20196;-64
2021/04/04 11:25:51;;;;;;;10.40;8.60;;;;;;;5.90;98.91;95514.19;4972139;28;20320;-64
2021/04/04 11:28:20;;;;;;;8.63;7.20;;;;;;;5.83;97.87;95505.16;4972045;28;20202;-64
2021/04/04 11:30:51;;;;;;;10.53;7.57;;;;;;;5.72;99.82;95512.16;4971911;28;20207;-64
2021/04/04 11:33:27;;;;;;;10.27;7.60;;;;;;;5.68;97.26;95505.94;4972240;28;20235;-64
2021/04/04 11:36:08;;;;;;;9.63;8.03;;;;;;;5.64;99.28;95490.25;4971914;28;20264;-64
2021/04/04 11:38:37;;;;;;;9.87;7.60;;;;;;;5.68;99.44;95490.47;4972108;28;20206;-64
2021/04/04 11:41:19;;;;;;;8.77;7.00;;;;;;;5.86;98.13;95484.78;4971886;28;20555;-64
2021/04/04 11:44:14;;;;;;;8.90;7.33;;;;;;;6.04;97.57;95473.91;4971979;28;20698;-63
2021/04/04 11:46:44;;;;;;;7.37;5.73;;;;;;;6.23;94.03;95470.72;4971615;28;20223;-65
2021/04/04 11:49:40;;;;;;;7.33;5.97;;;;;;;6.59;96.10;95469.47;4971898;28;20280;-64
2021/04/04 11:52:39;;;;;;;7.20;6.10;;;;;;;6.83;95.42;95478.09;4971749;28;20694;-65